createdAt,value
2023-02-17T00:01:02.954Z,100839.86
2023-02-17T00:03:34.924Z,100845.61
2023-02-17T00:06:10.910Z,100844.37
2023-02-17T00:08:43.064Z,100840.76
2023-02-17T00:11:15.391Z,100835.55
2023-02-17T00:13:49.788Z,100833.21
2023-02-17T00:16:23.453Z,100831.25
2023-02-17T00:18:58.458Z,100823.89
2023-02-17T00:21:32.226Z,100824.42
2023-02-17T00:24:04.174Z,100826.06
2023-02-17T00:26:38.236Z,100823.18
2023-02-17T00:29:10.586Z,100819.95
2023-02-17T00:31:42.495Z,100819.59
2023-02-17T00:34:14.802Z,100817.26
2023-02-17T00:36:46.790Z,100815.11
2023-02-17T00:39:19.048Z,100813.14
2023-02-17T00:41:54.210Z,100812.60
2023-02-17T00:44:27.178Z,100813.33
2023-02-17T00:46:58.925Z,100812.61
2023-02-17T00:49:30.723Z,100809.58
2023-02-17T00:52:03.607Z,100810.65
2023-02-17T00:54:39.357Z,100811.90
2023-02-17T00:57:09.545Z,100807.40
2023-02-17T00:59:41.302Z,100803.29
2023-02-17T01:02:13.651Z,100807.44
2023-02-17T01:04:45.607Z,100803.30
2023-02-17T01:07:20.040Z,100802.95
2023-02-17T01:09:52.284Z,100805.63
2023-02-17T01:12:24.166Z,100799.36
2023-02-17T01:14:55.246Z,100801.86
2023-02-17T01:17:28.917Z,100796.19
2023-02-17T01:20:01.167Z,100789.52
2023-02-17T01:22:32.998Z,100784.66
2023-02-17T01:25:05.384Z,100780.35
2023-02-17T01:27:38.322Z,100772.42
2023-02-17T01:30:12.009Z,100768.11
2023-02-17T01:32:44.132Z,100762.71
2023-02-17T01:35:16.213Z,100757.02
2023-02-17T01:37:49.863Z,100758.10
2023-02-17T01:40:21.469Z,100758.27
2023-02-17T01:42:53.483Z,100755.00
2023-02-17T01:45:43.040Z,100754.28
2023-02-17T01:48:18.794Z,100752.48
2023-02-17T01:50:54.044Z,100746.20
2023-02-17T01:53:31.672Z,100739.73
2023-02-17T01:56:04.979Z,100732.71
2023-02-17T01:58:39.130Z,100729.30
2023-02-17T02:01:11.446Z,100730.59
2023-02-17T02:03:43.433Z,100727.89
2023-02-17T02:06:21.760Z,100720.71
2023-02-17T02:09:00.493Z,100716.40
2023-02-17T02:11:34.097Z,100715.52
2023-02-17T02:14:08.963Z,100715.33
2023-02-17T02:16:50.467Z,100714.97
2023-02-17T02:19:53.313Z,100713.16
2023-02-17T02:22:41.223Z,100708.86
2023-02-17T02:25:29.690Z,100710.15
2023-02-17T02:28:16.269Z,100698.83
2023-02-17T02:31:15.189Z,100693.45
2023-02-17T02:33:51.736Z,100691.96
2023-02-17T02:36:29.661Z,100694.30
2023-02-17T02:39:05.722Z,100693.59
2023-02-17T02:41:42.272Z,100694.85
2023-02-17T02:44:19.834Z,100692.34
2023-02-17T02:47:00.971Z,100683.72
2023-02-17T02:49:35.276Z,100676.18
2023-02-17T02:52:17.205Z,100672.23
2023-02-17T02:55:00.308Z,100672.93
2023-02-17T02:57:48.568Z,100669.70
2023-02-17T03:00:26.164Z,100669.89
2023-02-17T03:03:04.054Z,100668.09
2023-02-17T03:05:45.721Z,100669.55
2023-02-17T03:08:21.296Z,100666.11
2023-02-17T03:10:55.383Z,100666.82
2023-02-17T03:13:27.891Z,100663.20
2023-02-17T03:15:59.839Z,100658.86
2023-02-17T03:18:34.553Z,100655.62
2023-02-17T03:21:15.373Z,100655.42
2023-02-17T03:23:47.427Z,100659.04
2023-02-17T03:26:19.191Z,100661.59
2023-02-17T03:28:51.177Z,100660.33
2023-02-17T03:31:23.550Z,100657.27
2023-02-17T03:33:54.165Z,100648.48
2023-02-17T03:36:26.051Z,100649.03
2023-02-17T03:38:58.142Z,100647.58
2023-02-17T03:41:30.119Z,100647.02
2023-02-17T03:44:01.838Z,100640.54
2023-02-17T03:46:33.625Z,100631.56
2023-02-17T03:49:05.330Z,100632.27
2023-02-17T03:51:37.222Z,100627.59
2023-02-17T03:54:08.975Z,100630.28
2023-02-17T03:56:47.906Z,100625.86
2023-02-17T03:59:19.781Z,100624.61
2023-02-17T04:01:51.522Z,100619.74
2023-02-17T04:04:23.328Z,100618.64
2023-02-17T04:06:55.099Z,100618.30
2023-02-17T04:09:26.923Z,100614.14
2023-02-17T04:11:58.892Z,100612.69
2023-02-17T04:14:31.295Z,100608.35
2023-02-17T04:17:05.985Z,100603.11
2023-02-17T04:19:37.870Z,100603.11
2023-02-17T04:22:09.788Z,100606.69
2023-02-17T04:24:43.601Z,100600.07
2023-02-17T04:27:15.357Z,100600.30
2023-02-17T04:29:47.000Z,100601.77
2023-02-17T04:32:18.978Z,100601.08
2023-02-17T04:34:50.720Z,100600.33
2023-02-17T04:37:22.542Z,100597.29
2023-02-17T04:39:54.573Z,100591.55
2023-02-17T04:42:26.541Z,100591.52
2023-02-17T04:44:58.280Z,100587.58
2023-02-17T04:47:30.466Z,100586.17
2023-02-17T04:50:02.503Z,100576.83
2023-02-17T04:52:34.222Z,100569.64
2023-02-17T04:55:07.406Z,100570.71
2023-02-17T04:57:39.134Z,100570.17
2023-02-17T05:00:13.429Z,100568.92
2023-02-17T05:02:45.142Z,100566.41
2023-02-17T05:05:18.890Z,100564.60
2023-02-17T05:07:50.897Z,100560.52
2023-02-17T05:10:24.142Z,100550.52
2023-02-17T05:12:56.350Z,100548.91
2023-02-17T05:15:28.083Z,100546.60
2023-02-17T05:17:59.812Z,100545.49
2023-02-17T05:20:31.852Z,100552.83
2023-02-17T05:23:03.619Z,100556.95
2023-02-17T05:25:35.421Z,100552.50
2023-02-17T05:28:07.200Z,100551.75
2023-02-17T05:30:38.916Z,100543.68
2023-02-17T05:33:10.657Z,100542.64
2023-02-17T05:35:42.382Z,100544.79
2023-02-17T05:38:14.197Z,100538.52
2023-02-17T05:40:46.048Z,100543.20
2023-02-17T05:43:17.942Z,100534.05
2023-02-17T05:45:49.660Z,100534.59
2023-02-17T05:48:21.397Z,100531.73
2023-02-17T05:50:53.123Z,100530.30
2023-02-17T05:53:24.950Z,100521.83
2023-02-17T05:55:56.886Z,100525.77
2023-02-17T05:58:28.656Z,100524.16
2023-02-17T06:01:00.770Z,100522.35
2023-02-17T06:03:32.950Z,100515.69
2023-02-17T06:06:05.553Z,100519.11
2023-02-17T06:08:39.277Z,100524.50
2023-02-17T06:11:11.532Z,100522.38
2023-02-17T06:13:43.467Z,100519.19
2023-02-17T06:16:15.591Z,100513.05
2023-02-17T06:18:47.340Z,100512.50
2023-02-17T06:21:19.114Z,100512.15
2023-02-17T06:23:50.844Z,100506.59
2023-02-17T06:26:22.577Z,100505.68
2023-02-17T06:28:54.682Z,100501.95
2023-02-17T06:31:27.106Z,100503.70
2023-02-17T06:33:59.020Z,100510.17
2023-02-17T06:36:30.799Z,100508.73
2023-02-17T06:39:02.471Z,100509.46
2023-02-17T06:41:34.714Z,100510.34
2023-02-17T06:44:06.984Z,100513.41
2023-02-17T06:46:38.775Z,100509.32
2023-02-17T06:49:10.529Z,100500.65
2023-02-17T06:51:42.626Z,100493.07
2023-02-17T06:54:14.677Z,100481.76
2023-02-17T06:56:46.484Z,100481.71
2023-02-17T06:59:18.606Z,100489.84
2023-02-17T07:01:50.788Z,100491.79
2023-02-17T07:04:22.630Z,100495.39
2023-02-17T07:06:54.420Z,100494.63
2023-02-17T07:09:26.223Z,100490.81
2023-02-17T07:11:58.705Z,100483.42
2023-02-17T07:14:30.988Z,100484.88
2023-02-17T07:17:03.329Z,100480.25
2023-02-17T07:19:35.171Z,100480.42
2023-02-17T07:22:06.978Z,100486.02
2023-02-17T07:24:38.781Z,100481.67
2023-02-17T07:27:11.022Z,100477.66
2023-02-17T07:29:43.440Z,100474.65
2023-02-17T07:32:15.123Z,100478.42
2023-02-17T07:34:46.882Z,100471.75
2023-02-17T07:37:20.044Z,100476.99
2023-02-17T07:39:52.328Z,100472.13
2023-02-17T07:42:24.490Z,100477.11
2023-02-17T07:44:57.669Z,100472.93
2023-02-17T07:47:30.142Z,100472.02
2023-02-17T07:50:02.000Z,100474.52
2023-02-17T07:52:35.509Z,100463.71
2023-02-17T07:55:07.894Z,100461.52
2023-02-17T07:57:39.561Z,100466.90
2023-02-17T08:00:13.456Z,100462.42
2023-02-17T08:02:46.049Z,100458.10
2023-02-17T08:05:18.134Z,100457.00
2023-02-17T08:08:09.850Z,100455.91
2023-02-17T08:11:14.791Z,100456.45
2023-02-17T08:13:47.486Z,100452.83
2023-02-17T08:16:19.526Z,100448.50
2023-02-17T08:18:51.271Z,100446.77
2023-02-17T08:21:23.264Z,100450.98
2023-02-17T08:23:56.162Z,100452.25
2023-02-17T08:26:28.766Z,100450.05
2023-02-17T08:29:00.885Z,100442.89
2023-02-17T08:31:36.188Z,100445.38
2023-02-17T08:34:09.924Z,100442.66
2023-02-17T08:36:42.649Z,100439.42
2023-02-17T08:39:17.582Z,100435.11
2023-02-17T08:41:49.701Z,100435.96
2023-02-17T08:44:22.961Z,100427.65
2023-02-17T08:46:55.207Z,100422.63
2023-02-17T08:49:30.092Z,100420.41
2023-02-17T08:52:02.313Z,100420.84
2023-02-17T08:54:34.727Z,100416.13
2023-02-17T08:57:06.514Z,100415.55
2023-02-17T08:59:38.440Z,100410.84
2023-02-17T09:02:11.612Z,100412.95
2023-02-17T09:04:44.317Z,100400.73
2023-02-17T09:07:16.002Z,100399.60
2023-02-17T09:09:47.911Z,100397.23
2023-02-17T09:12:20.200Z,100393.64
2023-02-17T09:14:52.300Z,100390.80
2023-02-17T09:17:25.881Z,100393.64
2023-02-17T09:19:57.867Z,100392.20
2023-02-17T09:22:32.238Z,100390.20
2023-02-17T09:25:05.017Z,100387.11
2023-02-17T09:27:36.749Z,100387.11
2023-02-17T09:30:11.203Z,100382.08
2023-02-17T09:32:44.820Z,100377.54
2023-02-17T09:35:18.640Z,100379.90
2023-02-17T09:37:50.501Z,100371.95
2023-02-17T09:40:25.664Z,100367.36
2023-02-17T09:42:57.595Z,100359.64
2023-02-17T09:45:35.022Z,100357.60
2023-02-17T09:48:11.947Z,100355.91
2023-02-17T09:50:46.675Z,100354.28
2023-02-17T09:53:25.074Z,100352.59
2023-02-17T09:55:59.171Z,100350.08
2023-02-17T09:58:37.434Z,100348.73
2023-02-17T10:01:12.820Z,100340.56
2023-02-17T10:03:50.667Z,100328.13
2023-02-17T10:06:27.014Z,100324.71
2023-02-17T10:09:04.231Z,100316.60
2023-02-17T10:11:39.220Z,100317.98
2023-02-17T10:14:16.877Z,100322.60
2023-02-17T10:16:54.645Z,100318.94
2023-02-17T10:19:31.278Z,100310.80
2023-02-17T10:22:08.045Z,100314.58
2023-02-17T10:24:40.156Z,100308.39
2023-02-17T10:27:25.846Z,100310.13
2023-02-17T10:30:10.841Z,100305.41
2023-02-17T10:32:55.260Z,100300.14
2023-02-17T10:35:34.040Z,100292.10
2023-02-17T10:38:15.874Z,100286.30
2023-02-17T10:40:51.060Z,100276.90
2023-02-17T10:43:29.936Z,100275.08
2023-02-17T10:46:04.109Z,100264.92
2023-02-17T10:48:41.844Z,100263.63
2023-02-17T10:51:18.709Z,100256.59
2023-02-17T10:53:53.964Z,100248.64
2023-02-17T10:56:31.272Z,100237.64
2023-02-17T10:59:08.882Z,100227.67
2023-02-17T11:01:42.660Z,100215.89
2023-02-17T11:04:15.472Z,100210.83
2023-02-17T11:06:51.168Z,100204.23
2023-02-17T11:09:32.854Z,100201.45
2023-02-17T11:12:11.270Z,100194.88
2023-02-17T11:14:49.190Z,100188.36
2023-02-17T11:17:31.070Z,100179.14
2023-02-17T11:20:06.181Z,100174.93
2023-02-17T11:22:41.704Z,100168.14
2023-02-17T11:25:25.740Z,100158.55
2023-02-17T11:27:59.541Z,100148.27
2023-02-17T11:30:34.951Z,100141.06
2023-02-17T11:33:22.498Z,100113.64
2023-02-17T11:35:56.293Z,100110.75
2023-02-17T11:38:31.734Z,100109.98
2023-02-17T11:41:06.825Z,100105.56
2023-02-17T11:43:39.237Z,100103.88
2023-02-17T11:46:29.332Z,100096.86
2023-02-17T11:49:21.596Z,100095.55
2023-02-17T11:52:04.865Z,100083.67
2023-02-17T11:54:48.836Z,100081.90
2023-02-17T11:57:34.348Z,100078.16
2023-02-17T12:00:17.272Z,100067.96
2023-02-17T12:03:04.818Z,100063.48
2023-02-17T12:05:47.811Z,100061.41
2023-02-17T12:08:27.376Z,100058.67
2023-02-17T12:11:09.179Z,100050.29
2023-02-17T12:13:53.605Z,100044.30
2023-02-17T12:16:36.973Z,100034.55
2023-02-17T12:19:25.909Z,100026.71
2023-02-17T12:22:10.190Z,100027.52
2023-02-17T12:24:54.054Z,100022.11
2023-02-17T12:27:39.494Z,100022.85
2023-02-17T12:30:27.657Z,100010.17
2023-02-17T12:33:35.396Z,100012.31
2023-02-17T12:36:11.616Z,99999.55
2023-02-17T12:38:49.351Z,99995.48
2023-02-17T12:41:27.389Z,99994.52
2023-02-17T12:44:02.940Z,99984.73
2023-02-17T12:46:39.819Z,99983.07
2023-02-17T12:49:18.396Z,99976.13
2023-02-17T12:51:54.013Z,99965.24
2023-02-17T12:54:33.894Z,99961.98
2023-02-17T12:57:17.234Z,99955.27
2023-02-17T12:59:51.276Z,99947.70
2023-02-17T13:02:24.861Z,99944.98
2023-02-17T13:05:00.500Z,99929.81
2023-02-17T13:07:47.381Z,99919.47
2023-02-17T13:10:30.026Z,99921.34
2023-02-17T13:13:06.421Z,99911.91
2023-02-17T13:15:42.821Z,99899.63
2023-02-17T13:18:29.401Z,99901.08
2023-02-17T13:21:16.100Z,99899.77
2023-02-17T13:23:59.998Z,99891.44
2023-02-17T13:26:34.761Z,99886.98
2023-02-17T13:29:35.230Z,99878.85
2023-02-17T13:32:10.614Z,99870.91
2023-02-17T13:34:44.649Z,99857.93
2023-02-17T13:37:25.141Z,99851.82
2023-02-17T13:39:57.606Z,99845.88
2023-02-17T13:42:42.100Z,99834.73
2023-02-17T13:45:27.858Z,99824.45
2023-02-17T13:48:01.603Z,99816.19
2023-02-17T13:50:36.283Z,99805.52
2023-02-17T13:53:24.692Z,99802.50
2023-02-17T13:55:58.496Z,99798.33
2023-02-17T13:58:33.098Z,99790.13
2023-02-17T14:01:07.786Z,99776.89
2023-02-17T14:03:48.008Z,99780.31
2023-02-17T14:06:26.869Z,99767.33
2023-02-17T14:08:59.664Z,99764.29
2023-02-17T14:11:33.085Z,99763.59
2023-02-17T14:14:07.675Z,99752.28
2023-02-17T14:16:43.409Z,99747.86
2023-02-17T14:19:18.316Z,99743.25
2023-02-17T14:22:00.925Z,99736.04
2023-02-17T14:24:36.146Z,99730.75
2023-02-17T14:27:13.928Z,99729.58
2023-02-17T14:29:48.552Z,99725.55
2023-02-17T14:32:31.942Z,99716.01
2023-02-17T14:35:20.955Z,99722.98
2023-02-17T14:37:53.131Z,99702.98
2023-02-17T14:40:26.205Z,99698.55
2023-02-17T14:42:57.979Z,99702.84
2023-02-17T14:45:29.721Z,99698.14
2023-02-17T14:48:01.513Z,99695.64
2023-02-17T14:50:34.458Z,99700.67
2023-02-17T14:53:11.103Z,99694.66
2023-02-17T14:55:47.056Z,99681.61
2023-02-17T14:58:25.588Z,99687.34
2023-02-17T15:00:57.676Z,99685.52
2023-02-17T15:03:29.918Z,99676.23
2023-02-17T15:06:02.604Z,99683.76
2023-02-17T15:08:36.149Z,99682.69
2023-02-17T15:11:12.549Z,99679.80
2023-02-17T15:13:44.372Z,99685.89
2023-02-17T15:16:16.810Z,99682.98
2023-02-17T15:18:50.874Z,99677.41
2023-02-17T15:21:29.919Z,99677.96
2023-02-17T15:24:03.486Z,99675.02
2023-02-17T15:26:35.516Z,99671.48
2023-02-17T15:29:07.316Z,99655.22
2023-02-17T15:31:39.406Z,99661.36
2023-02-17T15:34:16.738Z,99659.30
2023-02-17T15:36:48.970Z,99653.80
2023-02-17T15:39:22.190Z,99647.55
2023-02-17T15:41:57.259Z,99647.67
2023-02-17T15:44:36.392Z,99643.61
2023-02-17T15:47:13.358Z,99649.81
2023-02-17T15:49:45.880Z,99655.86
2023-02-17T15:52:17.646Z,99651.96
2023-02-17T15:54:49.857Z,99648.47
2023-02-17T15:57:25.626Z,99648.95
2023-02-17T15:59:58.174Z,99650.86
2023-02-17T16:02:31.411Z,99648.86
2023-02-17T16:05:03.646Z,99642.86
2023-02-17T16:07:36.371Z,99651.08
2023-02-17T16:10:12.598Z,99648.36
2023-02-17T16:12:45.010Z,99638.77
2023-02-17T16:15:19.742Z,99635.64
2023-02-17T16:17:52.108Z,99630.11
2023-02-17T16:20:26.519Z,99631.11
2023-02-17T16:22:58.415Z,99624.77
2023-02-17T16:25:31.135Z,99618.03
2023-02-17T16:28:01.949Z,99613.77
2023-02-17T16:30:36.549Z,99616.02
2023-02-17T16:33:10.906Z,99617.37
2023-02-17T16:35:45.041Z,99608.77
2023-02-17T16:38:23.034Z,99612.33
2023-02-17T16:40:55.375Z,99611.88
2023-02-17T16:43:30.547Z,99608.11
2023-02-17T16:46:04.903Z,99614.84
2023-02-17T16:48:38.097Z,99617.19
2023-02-17T16:51:10.068Z,99620.36
2023-02-17T16:53:41.836Z,99618.27
2023-02-17T16:56:19.674Z,99619.30
2023-02-17T16:58:51.557Z,99610.02
2023-02-17T17:01:24.308Z,99610.66
2023-02-17T17:03:56.522Z,99610.08
2023-02-17T17:06:30.627Z,99599.48
2023-02-17T17:09:02.538Z,99593.58
2023-02-17T17:11:34.639Z,99598.17
2023-02-17T17:14:06.472Z,99604.66
2023-02-17T17:16:40.068Z,99602.02
2023-02-17T17:19:14.003Z,99597.52
2023-02-17T17:21:45.727Z,99591.44
2023-02-17T17:24:18.606Z,99587.57
2023-02-17T17:26:51.806Z,99591.02
2023-02-17T17:29:24.354Z,99604.48
2023-02-17T17:31:56.252Z,99594.81
2023-02-17T17:34:28.539Z,99591.54
2023-02-17T17:37:00.562Z,99594.24
2023-02-17T17:39:32.367Z,99599.98
2023-02-17T17:42:04.261Z,99601.19
2023-02-17T17:44:36.001Z,99595.63
2023-02-17T17:47:21.334Z,99597.66
2023-02-17T17:50:00.243Z,99596.27
2023-02-17T17:52:32.386Z,99594.85
2023-02-17T17:55:04.305Z,99589.04
2023-02-17T17:57:36.155Z,99592.85
2023-02-17T18:00:11.048Z,99592.10
2023-02-17T18:02:47.210Z,99585.90
2023-02-17T18:05:19.678Z,99596.84
2023-02-17T18:07:53.354Z,99591.65
2023-02-17T18:10:25.186Z,99590.29
2023-02-17T18:12:57.130Z,99585.85
2023-02-17T18:15:29.208Z,99577.40
2023-02-17T18:18:01.009Z,99577.70
2023-02-17T18:20:33.208Z,99582.83
2023-02-17T18:23:05.456Z,99582.41
2023-02-17T18:25:37.223Z,99585.38
2023-02-17T18:28:09.019Z,99582.33
2023-02-17T18:30:40.884Z,99576.49
2023-02-17T18:33:14.498Z,99577.11
2023-02-17T18:35:46.589Z,99572.10
2023-02-17T18:38:19.549Z,99575.08
2023-02-17T18:40:52.003Z,99578.11
2023-02-17T18:43:24.072Z,99561.20
2023-02-17T18:45:55.900Z,99561.83
2023-02-17T18:48:27.784Z,99569.78
2023-02-17T18:50:59.535Z,99570.97
2023-02-17T18:53:31.767Z,99568.39
2023-02-17T18:56:03.546Z,99576.83
2023-02-17T18:58:35.326Z,99589.86
2023-02-17T19:01:07.777Z,99583.81
2023-02-17T19:03:39.600Z,99574.88
2023-02-17T19:06:16.934Z,99573.20
2023-02-17T19:08:50.259Z,99572.16
2023-02-17T19:11:24.234Z,99583.04
2023-02-17T19:13:56.328Z,99580.32
2023-02-17T19:16:31.076Z,99561.09
2023-02-17T19:19:03.955Z,99569.36
2023-02-17T19:21:36.553Z,99568.08
2023-02-17T19:24:09.400Z,99573.60
2023-02-17T19:26:41.457Z,99587.02
2023-02-17T19:29:13.555Z,99586.38
2023-02-17T19:31:45.884Z,99601.84
2023-02-17T19:34:19.918Z,99613.96
2023-02-17T19:36:52.029Z,99612.74
2023-02-17T19:39:24.619Z,99617.34
2023-02-17T19:41:55.377Z,99637.10
2023-02-17T19:44:27.251Z,99647.98
2023-02-17T19:46:59.071Z,99651.30
2023-02-17T19:49:31.030Z,99654.67
2023-02-17T19:52:02.718Z,99657.63
2023-02-17T19:54:34.504Z,99663.10
2023-02-17T19:57:06.851Z,99684.77
2023-02-17T19:59:39.082Z,99699.90
2023-02-17T20:02:16.198Z,99689.39
2023-02-17T20:04:47.992Z,99709.67
2023-02-17T20:07:20.017Z,99731.39
2023-02-17T20:09:52.047Z,99710.89
2023-02-17T20:12:24.211Z,99706.60
2023-02-17T20:14:56.353Z,99706.67
2023-02-17T20:17:28.123Z,99713.60
2023-02-17T20:20:00.408Z,99713.02
2023-02-17T20:22:32.259Z,99710.58
2023-02-17T20:25:04.568Z,99715.13
2023-02-17T20:27:36.675Z,99713.85
2023-02-17T20:30:10.642Z,99716.95
2023-02-17T20:32:42.785Z,99714.42
2023-02-17T20:35:16.499Z,99717.65
2023-02-17T20:37:48.634Z,99722.05
2023-02-17T20:40:21.870Z,99720.64
2023-02-17T20:42:54.202Z,99722.00
2023-02-17T20:45:26.261Z,99720.70
2023-02-17T20:47:58.440Z,99724.16
2023-02-17T20:50:30.800Z,99728.71
2023-02-17T20:53:03.229Z,99728.59
2023-02-17T20:55:35.324Z,99732.78
2023-02-17T20:58:07.636Z,99742.25
2023-02-17T21:00:40.721Z,99727.87
2023-02-17T21:03:12.696Z,99734.53
2023-02-17T21:05:44.838Z,99739.39
2023-02-17T21:08:19.160Z,99729.35
2023-02-17T21:10:51.476Z,99733.98
2023-02-17T21:13:23.857Z,99727.34
2023-02-17T21:15:56.063Z,99730.79
2023-02-17T21:18:27.955Z,99732.23
2023-02-17T21:20:59.703Z,99721.53
2023-02-17T21:23:31.732Z,99720.98
2023-02-17T21:26:03.783Z,99741.43
2023-02-17T21:28:36.092Z,99732.58
2023-02-17T21:31:08.586Z,99736.34
2023-02-17T21:33:42.241Z,99741.61
2023-02-17T21:36:17.539Z,99741.65
2023-02-17T21:38:49.877Z,99737.77
2023-02-17T21:41:24.033Z,99731.91
2023-02-17T21:44:13.757Z,99739.58
2023-02-17T21:46:46.539Z,99741.88
2023-02-17T21:49:18.512Z,99752.51
2023-02-17T21:51:50.552Z,99762.49
2023-02-17T21:54:23.392Z,99758.64
2023-02-17T21:56:57.468Z,99767.56
2023-02-17T21:59:29.500Z,99769.72
2023-02-17T22:02:01.273Z,99766.35
2023-02-17T22:04:33.069Z,99767.02
2023-02-17T22:07:04.866Z,99772.20
2023-02-17T22:09:36.897Z,99769.08
2023-02-17T22:12:08.163Z,99761.69
2023-02-17T22:14:40.199Z,99764.42
2023-02-17T22:17:11.907Z,99766.70
2023-02-17T22:19:43.764Z,99775.77
2023-02-17T22:22:15.520Z,99787.92
2023-02-17T22:24:47.479Z,99790.95
2023-02-17T22:27:19.541Z,99787.34
2023-02-17T22:29:51.423Z,99790.61
2023-02-17T22:32:23.125Z,99790.67
2023-02-17T22:34:54.826Z,99787.19
2023-02-17T22:37:26.708Z,99794.83
2023-02-17T22:39:59.344Z,99812.40
2023-02-17T22:42:29.894Z,99823.83
2023-02-17T22:45:01.680Z,99815.43
2023-02-17T22:47:33.815Z,99812.10
2023-02-17T22:50:06.512Z,99815.61
2023-02-17T22:52:38.595Z,99831.69
2023-02-17T22:55:10.583Z,99823.44
2023-02-17T22:57:42.530Z,99830.81
2023-02-17T23:00:16.563Z,99823.70
2023-02-17T23:02:48.543Z,99844.98
2023-02-17T23:05:20.917Z,99844.65
2023-02-17T23:07:53.584Z,99851.71
2023-02-17T23:10:24.013Z,99854.95
2023-02-17T23:12:55.979Z,99865.42
2023-02-17T23:15:40.217Z,99854.25
2023-02-17T23:18:14.732Z,99859.38
2023-02-17T23:20:49.627Z,99852.09
2023-02-17T23:23:24.388Z,99856.40
2023-02-17T23:25:57.940Z,99867.73
2023-02-17T23:28:29.734Z,99870.79
2023-02-17T23:31:01.500Z,99873.64
2023-02-17T23:33:33.215Z,99886.63
2023-02-17T23:36:08.477Z,99888.35
2023-02-17T23:38:40.441Z,99884.42
2023-02-17T23:41:13.006Z,99883.30
2023-02-17T23:43:43.316Z,99890.36
2023-02-17T23:46:15.294Z,99894.54
2023-02-17T23:48:47.264Z,99880.95
2023-02-17T23:51:20.167Z,99894.84
2023-02-17T23:53:52.204Z,99892.33
2023-02-17T23:56:26.561Z,99900.25
2023-02-17T23:58:58.299Z,99914.00
